createdAt,value
2022-12-18T00:02:01.513Z,-10.55
2022-12-18T00:06:03.420Z,-10.50
2022-12-18T00:10:07.887Z,-10.57
2022-12-18T00:14:12.227Z,-10.45
2022-12-18T00:18:16.062Z,-10.11
2022-12-18T00:22:20.565Z,-9.93
2022-12-18T00:26:25.398Z,-10.07
2022-12-18T00:30:27.229Z,-10.41
2022-12-18T00:34:28.763Z,-10.59
2022-12-18T00:38:30.367Z,-10.61
2022-12-18T00:42:33.226Z,-10.51
2022-12-18T00:46:34.791Z,-10.35
2022-12-18T00:50:36.348Z,-10.36
2022-12-18T00:54:37.865Z,-10.41
2022-12-18T00:58:40.757Z,-10.43
2022-12-18T01:02:42.715Z,-10.57
2022-12-18T01:06:44.386Z,-10.44
2022-12-18T01:10:46.212Z,-10.31
2022-12-18T01:14:49.208Z,-10.27
2022-12-18T01:18:52.902Z,-10.01
2022-12-18T01:22:54.399Z,-9.69
2022-12-18T01:26:55.936Z,-9.37
2022-12-18T01:30:58.789Z,-9.27
2022-12-18T01:35:00.289Z,-9.22
2022-12-18T01:39:04.019Z,-9.32
2022-12-18T01:43:05.553Z,-9.60
2022-12-18T01:47:21.100Z,-9.97
2022-12-18T01:51:23.047Z,-10.15
2022-12-18T01:55:26.594Z,-10.28
2022-12-18T01:59:29.260Z,-10.43
2022-12-18T02:03:32.151Z,-10.55
2022-12-18T02:07:43.389Z,-10.68
2022-12-18T02:11:53.933Z,-10.77
2022-12-18T02:16:03.018Z,-10.75
2022-12-18T02:20:14.722Z,-10.61
2022-12-18T02:24:26.489Z,-10.65
2022-12-18T02:28:34.417Z,-10.82
2022-12-18T02:32:41.017Z,-10.85
2022-12-18T02:36:45.055Z,-10.81
2022-12-18T02:40:47.265Z,-10.75
2022-12-18T02:44:52.065Z,-10.79
2022-12-18T02:48:59.018Z,-10.83
2022-12-18T02:53:11.179Z,-10.94
2022-12-18T02:57:21.696Z,-10.97
2022-12-18T03:01:32.367Z,-10.80
2022-12-18T03:05:39.440Z,-9.79
2022-12-18T03:09:47.293Z,-9.28
2022-12-18T03:13:53.544Z,-8.83
2022-12-18T03:18:00.569Z,-8.78
2022-12-18T03:22:04.385Z,-8.90
2022-12-18T03:26:10.177Z,-9.05
2022-12-18T03:30:16.669Z,-9.06
2022-12-18T03:34:24.268Z,-8.94
2022-12-18T03:38:25.836Z,-8.79
2022-12-18T03:42:32.322Z,-8.73
2022-12-18T03:46:41.595Z,-8.74
2022-12-18T03:50:49.659Z,-8.67
2022-12-18T03:54:52.432Z,-8.71
2022-12-18T03:58:56.157Z,-8.48
2022-12-18T04:03:01.561Z,-8.37
2022-12-18T04:07:05.643Z,-8.51
2022-12-18T04:11:07.220Z,-8.49
2022-12-18T04:15:09.998Z,-8.73
2022-12-18T04:19:11.611Z,-8.81
2022-12-18T04:23:14.459Z,-8.79
2022-12-18T04:27:16.181Z,-8.77
2022-12-18T04:31:17.875Z,-8.75
2022-12-18T04:35:19.529Z,-8.79
2022-12-18T04:39:22.760Z,-9.05
2022-12-18T04:43:24.367Z,-9.25
2022-12-18T04:47:25.929Z,-9.33
2022-12-18T04:51:27.420Z,-9.44
2022-12-18T04:55:30.274Z,-9.37
2022-12-18T04:59:31.773Z,-9.36
2022-12-18T05:03:33.318Z,-9.52
2022-12-18T05:07:35.038Z,-9.66
2022-12-18T05:11:37.889Z,-9.75
2022-12-18T05:15:39.481Z,-9.84
2022-12-18T05:19:41.050Z,-10.20
2022-12-18T05:23:42.905Z,-10.31
2022-12-18T05:27:46.923Z,-10.40
2022-12-18T05:31:48.459Z,-10.46
2022-12-18T05:35:51.774Z,-10.27
2022-12-18T05:39:53.332Z,-10.23
2022-12-18T05:43:56.246Z,-10.44
2022-12-18T05:47:57.742Z,-10.38
2022-12-18T05:51:59.228Z,-10.32
2022-12-18T05:56:01.979Z,-10.42
2022-12-18T06:00:05.838Z,-10.42
2022-12-18T06:04:07.452Z,-10.31
2022-12-18T06:08:09.790Z,-10.59
2022-12-18T06:12:11.293Z,-10.73
2022-12-18T06:16:14.276Z,-10.72
2022-12-18T06:20:15.907Z,-10.93
2022-12-18T06:24:18.501Z,-10.99
2022-12-18T06:28:20.094Z,-10.86
2022-12-18T06:32:23.637Z,-10.91
2022-12-18T06:36:25.163Z,-10.96
2022-12-18T06:40:26.642Z,-11.00
2022-12-18T06:44:28.211Z,-11.09
2022-12-18T06:48:31.775Z,-11.19
2022-12-18T06:52:33.633Z,-11.23
2022-12-18T06:56:35.334Z,-11.11
2022-12-18T07:00:36.989Z,-10.72
2022-12-18T07:04:39.854Z,-10.68
2022-12-18T07:08:41.502Z,-10.54
2022-12-18T07:12:43.142Z,-10.39
2022-12-18T07:16:44.670Z,-10.47
2022-12-18T07:20:47.751Z,-10.59
2022-12-18T07:24:50.204Z,-10.76
2022-12-18T07:28:56.600Z,-10.86
2022-12-18T07:32:58.060Z,-10.69
2022-12-18T07:37:01.053Z,-10.53
2022-12-18T07:41:03.353Z,-10.53
2022-12-18T07:45:08.089Z,-10.45
2022-12-18T07:49:09.587Z,-10.35
2022-12-18T07:53:12.549Z,-10.06
2022-12-18T07:57:41.418Z,-10.05
2022-12-18T08:01:35.880Z,-9.91
2022-12-18T08:05:37.570Z,-10.02
2022-12-18T08:09:40.519Z,-10.06
2022-12-18T08:13:42.463Z,-10.07
2022-12-18T08:17:44.362Z,-9.49
2022-12-18T08:21:46.068Z,-9.38
2022-12-18T08:25:49.089Z,-9.13
2022-12-18T08:29:50.648Z,-8.86
2022-12-18T08:33:53.443Z,-8.82
2022-12-18T08:37:56.102Z,-8.80
2022-12-18T08:41:59.201Z,-8.51
2022-12-18T08:46:00.946Z,-8.46
2022-12-18T08:50:02.668Z,-8.40
2022-12-18T08:54:06.422Z,-8.10
2022-12-18T08:58:09.633Z,-7.91
2022-12-18T09:02:11.949Z,-7.78
2022-12-18T09:06:15.225Z,-7.61
2022-12-18T09:10:16.997Z,-7.54
2022-12-18T09:14:20.652Z,-7.44
2022-12-18T09:18:23.717Z,-7.36
2022-12-18T09:22:25.310Z,-7.22
2022-12-18T09:26:27.399Z,-7.08
2022-12-18T09:30:30.357Z,-7.03
2022-12-18T09:34:32.065Z,-6.89
2022-12-18T09:38:34.102Z,-7.03
2022-12-18T09:42:35.753Z,-6.86
2022-12-18T09:46:44.857Z,-6.89
2022-12-18T09:50:47.443Z,-6.76
2022-12-18T09:54:54.080Z,-6.48
2022-12-18T09:58:59.415Z,-6.39
2022-12-18T10:03:09.804Z,-6.15
2022-12-18T10:07:20.014Z,-5.97
2022-12-18T10:11:32.318Z,-5.82
2022-12-18T10:15:41.184Z,-5.78
2022-12-18T10:19:51.104Z,-5.67
2022-12-18T10:23:59.507Z,-5.46
2022-12-18T10:28:09.588Z,-5.42
2022-12-18T10:32:16.947Z,-5.28
2022-12-18T10:36:19.808Z,-5.16
2022-12-18T10:40:22.760Z,-5.43
2022-12-18T10:44:28.552Z,-5.16
2022-12-18T10:48:31.873Z,-4.83
2022-12-18T10:52:34.955Z,-4.77
2022-12-18T10:56:38.962Z,-4.59
2022-12-18T11:00:42.125Z,-4.71
2022-12-18T11:04:52.370Z,-4.42
2022-12-18T11:09:00.764Z,-4.23
2022-12-18T11:13:13.786Z,-4.11
2022-12-18T11:17:27.691Z,-4.08
2022-12-18T11:21:29.269Z,-4.27
2022-12-18T11:25:35.394Z,-4.02
2022-12-18T11:29:46.246Z,-4.05
2022-12-18T11:34:26.772Z,-3.93
2022-12-18T11:38:22.901Z,-4.04
2022-12-18T11:42:32.997Z,-3.89
2022-12-18T11:46:40.877Z,-3.80
2022-12-18T11:50:51.696Z,-3.77
2022-12-18T11:54:53.738Z,-3.73
2022-12-18T11:59:08.019Z,-3.71
2022-12-18T12:03:44.539Z,-3.83
2022-12-18T12:07:56.162Z,-3.89
2022-12-18T12:12:11.491Z,-3.85
2022-12-18T12:16:19.344Z,-3.94
2022-12-18T12:20:25.904Z,-4.02
2022-12-18T12:24:38.588Z,-4.01
2022-12-18T12:28:53.485Z,-4.04
2022-12-18T12:33:15.296Z,-4.06
2022-12-18T12:37:28.186Z,-4.01
2022-12-18T12:41:33.231Z,-3.98
2022-12-18T12:45:39.898Z,-4.03
2022-12-18T12:49:43.685Z,-4.09
2022-12-18T12:53:46.077Z,-4.14
2022-12-18T12:57:56.837Z,-4.17
2022-12-18T13:02:05.410Z,-4.37
2022-12-18T13:06:15.553Z,-4.43
2022-12-18T13:10:36.183Z,-4.51
2022-12-18T13:14:40.197Z,-4.49
2022-12-18T13:18:50.499Z,-4.60
2022-12-18T13:22:53.406Z,-4.71
2022-12-18T13:26:55.151Z,-4.68
2022-12-18T13:30:57.734Z,-4.67
2022-12-18T13:35:39.759Z,-4.66
2022-12-18T13:39:43.128Z,-4.57
2022-12-18T13:43:47.773Z,-4.74
2022-12-18T13:47:50.574Z,-4.56
2022-12-18T13:51:53.832Z,-4.57
2022-12-18T13:55:57.199Z,-4.70
2022-12-18T14:00:00.156Z,-4.86
2022-12-18T14:04:12.733Z,-4.88
2022-12-18T14:08:16.254Z,-4.89
2022-12-18T14:12:22.583Z,-4.96
2022-12-18T14:16:24.251Z,-5.05
2022-12-18T14:20:26.804Z,-5.13
2022-12-18T14:24:28.513Z,-5.12
2022-12-18T14:28:31.435Z,-5.20
2022-12-18T14:32:32.952Z,-5.32
2022-12-18T14:36:35.513Z,-5.33
2022-12-18T14:40:37.136Z,-5.33
2022-12-18T14:45:05.207Z,-5.36
2022-12-18T14:49:04.637Z,-5.61
2022-12-18T14:53:18.522Z,-5.69
2022-12-18T14:57:24.186Z,-5.93
2022-12-18T15:01:30.295Z,-6.13
2022-12-18T15:05:32.635Z,-6.10
2022-12-18T15:09:34.143Z,-6.20
2022-12-18T15:13:35.664Z,-6.20
2022-12-18T15:17:39.121Z,-6.40
2022-12-18T15:21:43.906Z,-6.28
2022-12-18T15:25:47.042Z,-6.30
2022-12-18T15:30:16.518Z,-6.37
2022-12-18T15:34:23.228Z,-6.59
2022-12-18T15:38:24.763Z,-6.56
2022-12-18T15:42:26.338Z,-6.55
2022-12-18T15:46:27.903Z,-6.44
2022-12-18T15:50:30.910Z,-6.35
2022-12-18T15:54:32.773Z,-6.35
2022-12-18T15:58:34.331Z,-6.36
2022-12-18T16:02:36.049Z,-6.36
2022-12-18T16:07:05.314Z,-6.38
2022-12-18T16:11:01.066Z,-6.33
2022-12-18T16:15:02.617Z,-6.31
2022-12-18T16:19:04.116Z,-6.31
2022-12-18T16:23:07.299Z,-6.30
2022-12-18T16:27:08.836Z,-6.35
2022-12-18T16:31:10.491Z,-6.44
2022-12-18T16:35:13.080Z,-6.44
2022-12-18T16:39:16.009Z,-6.44
2022-12-18T16:43:17.494Z,-6.35
2022-12-18T16:47:19.689Z,-6.37
2022-12-18T16:51:21.203Z,-6.39
2022-12-18T16:55:24.036Z,-6.45
2022-12-18T16:59:25.645Z,-6.47
2022-12-18T17:03:27.443Z,-6.42
2022-12-18T17:07:29.084Z,-6.41
2022-12-18T17:11:33.663Z,-6.46
2022-12-18T17:15:35.408Z,-6.44
2022-12-18T17:19:36.971Z,-6.32
2022-12-18T17:23:38.739Z,-6.41
2022-12-18T17:27:41.804Z,-6.40
2022-12-18T17:31:43.401Z,-6.38
2022-12-18T17:35:45.186Z,-6.43
2022-12-18T17:39:49.873Z,-6.39
2022-12-18T17:43:53.786Z,-6.39
2022-12-18T17:47:59.696Z,-6.44
2022-12-18T17:52:01.550Z,-6.36
2022-12-18T17:56:03.252Z,-6.32
2022-12-18T18:00:07.899Z,-6.30
2022-12-18T18:04:09.831Z,-6.29
2022-12-18T18:08:11.478Z,-6.24
2022-12-18T18:12:13.214Z,-6.17
2022-12-18T18:16:16.207Z,-6.12
2022-12-18T18:20:22.493Z,-6.06
2022-12-18T18:24:24.412Z,-5.96
2022-12-18T18:28:25.970Z,-5.91
2022-12-18T18:32:28.899Z,-5.84
2022-12-18T18:36:30.833Z,-5.80
2022-12-18T18:40:32.482Z,-5.77
2022-12-18T18:44:34.014Z,-5.79
2022-12-18T18:48:37.476Z,-5.74
2022-12-18T18:52:39.949Z,-5.65
2022-12-18T18:57:18.820Z,-5.59
2022-12-18T19:01:06.983Z,-5.62
2022-12-18T19:05:10.035Z,-5.61
2022-12-18T19:09:11.598Z,-5.53
2022-12-18T19:13:13.854Z,-5.48
2022-12-18T19:17:15.456Z,-5.39
2022-12-18T19:21:18.768Z,-5.39
2022-12-18T19:25:20.368Z,-5.34
2022-12-18T19:29:21.920Z,-5.41
2022-12-18T19:37:46.443Z,-5.29
2022-12-18T19:41:48.279Z,-5.24
2022-12-18T19:45:54.615Z,-5.25
2022-12-18T19:49:56.238Z,-5.22
2022-12-18T19:54:01.834Z,-5.13
2022-12-18T19:58:03.561Z,-5.12
2022-12-18T20:02:05.161Z,-5.18
2022-12-18T20:06:11.963Z,-5.12
2022-12-18T20:10:15.110Z,-5.03
2022-12-18T20:14:23.485Z,-5.05
2022-12-18T20:18:25.313Z,-5.01
2022-12-18T20:22:27.047Z,-4.96
2022-12-18T20:26:30.281Z,-4.95
2022-12-18T20:30:31.850Z,-4.94
2022-12-18T20:34:33.352Z,-4.89
2022-12-18T20:38:35.696Z,-4.89
2022-12-18T20:42:38.952Z,-4.82
2022-12-18T20:46:40.461Z,-4.91
2022-12-18T20:50:42.008Z,-4.82
2022-12-18T20:54:43.514Z,-4.73
2022-12-18T20:58:46.713Z,-4.65
2022-12-18T21:02:48.333Z,-4.53
2022-12-18T21:06:55.568Z,-4.51
2022-12-18T21:11:17.526Z,-4.46
2022-12-18T21:15:26.813Z,-4.37
2022-12-18T21:19:30.069Z,-4.38
2022-12-18T21:23:32.017Z,-4.32
2022-12-18T21:27:33.837Z,-4.27
2022-12-18T21:31:38.198Z,-4.23
2022-12-18T21:35:39.789Z,-4.14
2022-12-18T21:39:41.570Z,-4.19
2022-12-18T21:43:43.264Z,-4.26
2022-12-18T21:47:46.366Z,-4.30
2022-12-18T21:51:49.351Z,-4.32
2022-12-18T21:55:58.055Z,-4.41
2022-12-18T21:59:59.685Z,-4.40
2022-12-18T22:04:02.926Z,-4.39
2022-12-18T22:08:05.063Z,-4.46
2022-12-18T22:12:07.599Z,-4.43
2022-12-18T22:16:09.330Z,-4.50
2022-12-18T22:20:12.907Z,-4.57
2022-12-18T22:24:17.062Z,-4.53
2022-12-18T22:28:18.658Z,-4.58
2022-12-18T22:32:30.575Z,-4.62
2022-12-18T22:36:37.753Z,-4.64
2022-12-18T22:40:39.491Z,-4.68
2022-12-18T22:44:41.187Z,-4.70
2022-12-18T22:48:43.366Z,-4.68
2022-12-18T22:52:46.414Z,-4.73
2022-12-18T22:56:48.377Z,-4.78
2022-12-18T23:00:49.957Z,-4.74
2022-12-18T23:04:51.612Z,-4.77
2022-12-18T23:08:56.209Z,-4.75
2022-12-18T23:12:57.865Z,-4.80
2022-12-18T23:16:59.475Z,-4.83
2022-12-18T23:21:05.418Z,-4.89
2022-12-18T23:25:10.360Z,-4.94
2022-12-18T23:29:11.857Z,-5.07
2022-12-18T23:33:13.328Z,-5.13
2022-12-18T23:37:29.971Z,-5.16
2022-12-18T23:41:37.899Z,-5.19
2022-12-18T23:45:39.395Z,-5.25
2022-12-18T23:49:40.889Z,-5.29
2022-12-18T23:53:42.965Z,-5.34
2022-12-18T23:57:45.819Z,-5.38
